sensor_id;sensor_type;location;lat;lon;timestamp;temperature;humidity
22145;DHT22;11238;48.730;11.566;2023-05-10T00:00:27;15.20;99.90
22145;DHT22;11238;48.730;11.566;2023-05-10T00:02:53;15.30;99.90
22145;DHT22;11238;48.730;11.566;2023-05-10T00:05:19;15.20;99.90
22145;DHT22;11238;48.730;11.566;2023-05-10T00:07:45;15.30;99.90
22145;DHT22;11238;48.730;11.566;2023-05-10T00:10:11;15.20;99.90
22145;DHT22;11238;48.730;11.566;2023-05-10T00:12:37;15.30;99.90
22145;DHT22;11238;48.730;11.566;2023-05-10T00:15:05;15.30;99.90
22145;DHT22;11238;48.730;11.566;2023-05-10T00:17:31;15.20;99.90
22145;DHT22;11238;48.730;11.566;2023-05-10T00:19:57;15.20;99.90
22145;DHT22;11238;48.730;11.566;2023-05-10T00:22:23;15.20;99.90
22145;DHT22;11238;48.730;11.566;2023-05-10T00:24:49;15.20;99.90
22145;DHT22;11238;48.730;11.566;2023-05-10T00:27:15;15.10;99.90
22145;DHT22;11238;48.730;11.566;2023-05-10T00:29:41;15.10;99.90
22145;DHT22;11238;48.730;11.566;2023-05-10T00:32:07;15.00;99.90
22145;DHT22;11238;48.730;11.566;2023-05-10T00:34:33;14.90;99.90
22145;DHT22;11238;48.730;11.566;2023-05-10T00:36:59;14.80;99.90
22145;DHT22;11238;48.730;11.566;2023-05-10T00:39:26;14.70;99.90
22145;DHT22;11238;48.730;11.566;2023-05-10T00:41:54;14.80;99.90
22145;DHT22;11238;48.730;11.566;2023-05-10T00:44:20;14.70;99.90
22145;DHT22;11238;48.730;11.566;2023-05-10T00:46:48;14.60;99.90
22145;DHT22;11238;48.730;11.566;2023-05-10T00:49:15;14.60;99.90
22145;DHT22;11238;48.730;11.566;2023-05-10T00:51:41;14.60;99.90
22145;DHT22;11238;48.730;11.566;2023-05-10T00:54:10;14.60;99.90
22145;DHT22;11238;48.730;11.566;2023-05-10T00:56:36;14.60;99.90
22145;DHT22;11238;48.730;11.566;2023-05-10T00:59:03;14.70;99.90
22145;DHT22;11238;48.730;11.566;2023-05-10T01:01:29;14.70;99.90
22145;DHT22;11238;48.730;11.566;2023-05-10T01:03:56;14.70;99.90
22145;DHT22;11238;48.730;11.566;2023-05-10T01:06:22;14.70;99.90
22145;DHT22;11238;48.730;11.566;2023-05-10T01:08:48;14.70;99.90
22145;DHT22;11238;48.730;11.566;2023-05-10T01:11:14;14.70;99.90
22145;DHT22;11238;48.730;11.566;2023-05-10T01:13:42;14.70;99.90
22145;DHT22;11238;48.730;11.566;2023-05-10T01:16:08;14.60;99.90
22145;DHT22;11238;48.730;11.566;2023-05-10T01:18:41;14.50;99.90
22145;DHT22;11238;48.730;11.566;2023-05-10T01:21:37;14.40;99.90
22145;DHT22;11238;48.730;11.566;2023-05-10T01:27:25;14.40;99.90
22145;DHT22;11238;48.730;11.566;2023-05-10T01:30:34;14.40;99.90
22145;DHT22;11238;48.730;11.566;2023-05-10T01:33:21;14.20;99.90
22145;DHT22;11238;48.730;11.566;2023-05-10T01:36:03;14.10;99.90
22145;DHT22;11238;48.730;11.566;2023-05-10T01:38:52;14.20;99.90
22145;DHT22;11238;48.730;11.566;2023-05-10T01:44:16;14.20;99.90
22145;DHT22;11238;48.730;11.566;2023-05-10T01:46:48;14.40;99.90
22145;DHT22;11238;48.730;11.566;2023-05-10T01:49:25;14.40;99.90
22145;DHT22;11238;48.730;11.566;2023-05-10T01:51:54;14.30;99.90
22145;DHT22;11238;48.730;11.566;2023-05-10T01:54:24;14.30;99.90
22145;DHT22;11238;48.730;11.566;2023-05-10T01:56:55;14.30;99.90
22145;DHT22;11238;48.730;11.566;2023-05-10T01:59:28;14.20;99.90
22145;DHT22;11238;48.730;11.566;2023-05-10T02:01:57;14.20;99.90
22145;DHT22;11238;48.730;11.566;2023-05-10T02:04:25;14.20;99.90
22145;DHT22;11238;48.730;11.566;2023-05-10T02:06:53;14.20;99.90
22145;DHT22;11238;48.730;11.566;2023-05-10T02:09:21;14.20;99.90
22145;DHT22;11238;48.730;11.566;2023-05-10T02:11:50;14.20;99.90
22145;DHT22;11238;48.730;11.566;2023-05-10T02:14:16;14.30;99.90
22145;DHT22;11238;48.730;11.566;2023-05-10T02:16:43;14.30;99.90
22145;DHT22;11238;48.730;11.566;2023-05-10T02:19:11;14.30;99.90
22145;DHT22;11238;48.730;11.566;2023-05-10T02:21:39;14.20;99.90
22145;DHT22;11238;48.730;11.566;2023-05-10T02:24:06;14.30;99.90
22145;DHT22;11238;48.730;11.566;2023-05-10T02:26:34;14.30;99.90
22145;DHT22;11238;48.730;11.566;2023-05-10T02:29:02;14.20;99.90
22145;DHT22;11238;48.730;11.566;2023-05-10T02:31:31;14.20;99.90
22145;DHT22;11238;48.730;11.566;2023-05-10T02:33:59;14.20;99.90
22145;DHT22;11238;48.730;11.566;2023-05-10T02:36:26;14.20;99.90
22145;DHT22;11238;48.730;11.566;2023-05-10T02:38:53;14.20;99.90
22145;DHT22;11238;48.730;11.566;2023-05-10T02:41:20;14.20;99.90
22145;DHT22;11238;48.730;11.566;2023-05-10T02:43:50;14.20;99.90
22145;DHT22;11238;48.730;11.566;2023-05-10T02:46:19;14.20;99.90
22145;DHT22;11238;48.730;11.566;2023-05-10T02:48:45;14.20;99.90
22145;DHT22;11238;48.730;11.566;2023-05-10T02:51:12;14.20;99.90
22145;DHT22;11238;48.730;11.566;2023-05-10T02:53:43;14.20;99.90
22145;DHT22;11238;48.730;11.566;2023-05-10T02:56:23;14.30;99.90
22145;DHT22;11238;48.730;11.566;2023-05-10T02:58:51;14.20;99.90
22145;DHT22;11238;48.730;11.566;2023-05-10T03:01:17;14.20;99.90
22145;DHT22;11238;48.730;11.566;2023-05-10T03:03:43;14.20;99.90
22145;DHT22;11238;48.730;11.566;2023-05-10T03:06:09;14.20;99.90
22145;DHT22;11238;48.730;11.566;2023-05-10T03:08:35;14.20;99.90
22145;DHT22;11238;48.730;11.566;2023-05-10T03:11:14;14.20;99.90
22145;DHT22;11238;48.730;11.566;2023-05-10T03:16:39;14.20;99.90
22145;DHT22;11238;48.730;11.566;2023-05-10T03:19:36;14.30;99.90
22145;DHT22;11238;48.730;11.566;2023-05-10T03:22:08;14.20;99.90
22145;DHT22;11238;48.730;11.566;2023-05-10T03:24:39;14.10;99.90
22145;DHT22;11238;48.730;11.566;2023-05-10T03:27:08;14.20;99.90
22145;DHT22;11238;48.730;11.566;2023-05-10T03:29:34;14.20;99.90
22145;DHT22;11238;48.730;11.566;2023-05-10T03:32:01;14.20;99.90
22145;DHT22;11238;48.730;11.566;2023-05-10T03:34:30;14.20;99.90
22145;DHT22;11238;48.730;11.566;2023-05-10T03:36:57;14.30;99.90
22145;DHT22;11238;48.730;11.566;2023-05-10T03:39:24;14.20;99.90
22145;DHT22;11238;48.730;11.566;2023-05-10T03:41:54;14.20;99.90
22145;DHT22;11238;48.730;11.566;2023-05-10T03:44:20;14.10;99.90
22145;DHT22;11238;48.730;11.566;2023-05-10T03:46:46;14.10;99.90
22145;DHT22;11238;48.730;11.566;2023-05-10T03:49:12;14.10;99.90
22145;DHT22;11238;48.730;11.566;2023-05-10T03:51:39;14.10;99.90
22145;DHT22;11238;48.730;11.566;2023-05-10T03:54:05;14.10;99.90
22145;DHT22;11238;48.730;11.566;2023-05-10T03:56:31;14.00;99.90
22145;DHT22;11238;48.730;11.566;2023-05-10T03:58:59;13.90;99.90
22145;DHT22;11238;48.730;11.566;2023-05-10T04:01:25;14.00;99.90
22145;DHT22;11238;48.730;11.566;2023-05-10T04:03:51;14.00;99.90
22145;DHT22;11238;48.730;11.566;2023-05-10T04:06:17;14.00;99.90
22145;DHT22;11238;48.730;11.566;2023-05-10T04:08:42;14.00;99.90
22145;DHT22;11238;48.730;11.566;2023-05-10T04:11:10;13.90;99.90
22145;DHT22;11238;48.730;11.566;2023-05-10T04:13:37;13.70;99.90
22145;DHT22;11238;48.730;11.566;2023-05-10T04:16:04;13.60;99.90
22145;DHT22;11238;48.730;11.566;2023-05-10T04:18:30;13.40;99.90
22145;DHT22;11238;48.730;11.566;2023-05-10T04:20:56;13.40;99.90
22145;DHT22;11238;48.730;11.566;2023-05-10T04:23:22;13.40;99.90
22145;DHT22;11238;48.730;11.566;2023-05-10T04:25:48;13.40;99.90
22145;DHT22;11238;48.730;11.566;2023-05-10T04:28:14;13.40;99.90
22145;DHT22;11238;48.730;11.566;2023-05-10T04:30:40;13.30;99.90
22145;DHT22;11238;48.730;11.566;2023-05-10T04:33:06;13.30;99.90
22145;DHT22;11238;48.730;11.566;2023-05-10T04:35:32;13.30;99.90
22145;DHT22;11238;48.730;11.566;2023-05-10T04:37:57;13.30;99.90
22145;DHT22;11238;48.730;11.566;2023-05-10T04:40:26;13.30;99.90
22145;DHT22;11238;48.730;11.566;2023-05-10T04:42:52;13.20;99.90
22145;DHT22;11238;48.730;11.566;2023-05-10T04:45:18;13.20;99.90
22145;DHT22;11238;48.730;11.566;2023-05-10T04:47:43;13.20;99.90
22145;DHT22;11238;48.730;11.566;2023-05-10T04:50:12;13.20;99.90
22145;DHT22;11238;48.730;11.566;2023-05-10T04:52:37;13.20;99.90
22145;DHT22;11238;48.730;11.566;2023-05-10T04:55:03;13.20;99.90
22145;DHT22;11238;48.730;11.566;2023-05-10T04:57:30;13.10;99.90
22145;DHT22;11238;48.730;11.566;2023-05-10T04:59:55;13.10;99.90
22145;DHT22;11238;48.730;11.566;2023-05-10T05:02:21;13.10;99.90
22145;DHT22;11238;48.730;11.566;2023-05-10T05:04:47;13.00;99.90
22145;DHT22;11238;48.730;11.566;2023-05-10T05:07:13;13.00;99.90
22145;DHT22;11238;48.730;11.566;2023-05-10T05:09:39;13.00;99.90
22145;DHT22;11238;48.730;11.566;2023-05-10T05:12:05;13.00;99.90
22145;DHT22;11238;48.730;11.566;2023-05-10T05:14:31;13.00;99.90
22145;DHT22;11238;48.730;11.566;2023-05-10T05:16:58;13.00;99.90
22145;DHT22;11238;48.730;11.566;2023-05-10T05:19:24;13.00;99.90
22145;DHT22;11238;48.730;11.566;2023-05-10T05:21:49;13.00;99.90
22145;DHT22;11238;48.730;11.566;2023-05-10T05:24:16;13.00;99.90
22145;DHT22;11238;48.730;11.566;2023-05-10T05:26:41;13.00;99.90
22145;DHT22;11238;48.730;11.566;2023-05-10T05:29:07;13.00;99.90
22145;DHT22;11238;48.730;11.566;2023-05-10T05:31:33;13.10;99.90
22145;DHT22;11238;48.730;11.566;2023-05-10T05:33:59;13.10;99.90
22145;DHT22;11238;48.730;11.566;2023-05-10T05:36:25;13.10;99.90
22145;DHT22;11238;48.730;11.566;2023-05-10T05:38:51;12.90;99.90
22145;DHT22;11238;48.730;11.566;2023-05-10T05:41:18;12.90;99.90
22145;DHT22;11238;48.730;11.566;2023-05-10T05:43:44;12.90;99.90
22145;DHT22;11238;48.730;11.566;2023-05-10T05:46:10;12.80;99.90
22145;DHT22;11238;48.730;11.566;2023-05-10T05:48:35;12.80;99.90
22145;DHT22;11238;48.730;11.566;2023-05-10T05:51:02;12.80;99.90
22145;DHT22;11238;48.730;11.566;2023-05-10T05:53:28;12.70;99.90
22145;DHT22;11238;48.730;11.566;2023-05-10T05:55:56;12.70;99.90
22145;DHT22;11238;48.730;11.566;2023-05-10T05:58:27;12.70;99.90
22145;DHT22;11238;48.730;11.566;2023-05-10T06:00:53;12.70;99.90
22145;DHT22;11238;48.730;11.566;2023-05-10T06:03:19;12.70;99.90
22145;DHT22;11238;48.730;11.566;2023-05-10T06:05:44;12.70;99.90
22145;DHT22;11238;48.730;11.566;2023-05-10T06:08:11;12.70;99.90
22145;DHT22;11238;48.730;11.566;2023-05-10T06:10:37;12.70;99.90
22145;DHT22;11238;48.730;11.566;2023-05-10T06:13:06;12.70;99.90
22145;DHT22;11238;48.730;11.566;2023-05-10T06:15:32;12.80;99.90
22145;DHT22;11238;48.730;11.566;2023-05-10T06:17:58;12.70;99.90
22145;DHT22;11238;48.730;11.566;2023-05-10T06:20:25;12.80;99.90
22145;DHT22;11238;48.730;11.566;2023-05-10T06:22:50;12.80;99.90
22145;DHT22;11238;48.730;11.566;2023-05-10T06:25:17;12.90;99.90
22145;DHT22;11238;48.730;11.566;2023-05-10T06:27:44;12.90;99.90
22145;DHT22;11238;48.730;11.566;2023-05-10T06:30:11;12.90;99.90
22145;DHT22;11238;48.730;11.566;2023-05-10T06:32:46;13.00;99.90
22145;DHT22;11238;48.730;11.566;2023-05-10T06:35:44;13.00;99.90
22145;DHT22;11238;48.730;11.566;2023-05-10T06:38:10;13.10;99.90
22145;DHT22;11238;48.730;11.566;2023-05-10T06:40:37;13.10;99.90
22145;DHT22;11238;48.730;11.566;2023-05-10T06:43:06;13.10;99.90
22145;DHT22;11238;48.730;11.566;2023-05-10T06:45:53;13.20;99.90
22145;DHT22;11238;48.730;11.566;2023-05-10T06:48:20;13.10;99.90
22145;DHT22;11238;48.730;11.566;2023-05-10T06:50:45;13.20;99.90
22145;DHT22;11238;48.730;11.566;2023-05-10T06:53:12;13.30;99.90
22145;DHT22;11238;48.730;11.566;2023-05-10T06:55:39;13.30;99.90
22145;DHT22;11238;48.730;11.566;2023-05-10T06:58:05;13.30;99.90
22145;DHT22;11238;48.730;11.566;2023-05-10T07:00:34;13.30;99.90
22145;DHT22;11238;48.730;11.566;2023-05-10T07:03:00;13.40;99.90
22145;DHT22;11238;48.730;11.566;2023-05-10T07:05:26;13.50;99.90
22145;DHT22;11238;48.730;11.566;2023-05-10T07:07:53;13.60;99.90
22145;DHT22;11238;48.730;11.566;2023-05-10T07:10:25;13.70;99.90
22145;DHT22;11238;48.730;11.566;2023-05-10T07:12:55;13.60;99.90
22145;DHT22;11238;48.730;11.566;2023-05-10T07:15:20;13.60;99.90
22145;DHT22;11238;48.730;11.566;2023-05-10T07:17:46;13.60;99.90
22145;DHT22;11238;48.730;11.566;2023-05-10T07:20:18;13.70;99.90
22145;DHT22;11238;48.730;11.566;2023-05-10T07:22:44;13.80;99.90
22145;DHT22;11238;48.730;11.566;2023-05-10T07:25:12;13.90;99.90
22145;DHT22;11238;48.730;11.566;2023-05-10T07:27:39;14.00;99.90
22145;DHT22;11238;48.730;11.566;2023-05-10T07:30:11;14.10;99.90
22145;DHT22;11238;48.730;11.566;2023-05-10T07:32:38;14.20;99.90
22145;DHT22;11238;48.730;11.566;2023-05-10T07:35:05;14.20;99.90
22145;DHT22;11238;48.730;11.566;2023-05-10T07:37:33;14.10;99.90
22145;DHT22;11238;48.730;11.566;2023-05-10T07:40:01;14.10;99.90
22145;DHT22;11238;48.730;11.566;2023-05-10T07:42:28;14.20;99.90
22145;DHT22;11238;48.730;11.566;2023-05-10T07:44:54;14.30;99.90
22145;DHT22;11238;48.730;11.566;2023-05-10T07:47:22;14.30;99.90
22145;DHT22;11238;48.730;11.566;2023-05-10T07:49:49;14.20;99.90
22145;DHT22;11238;48.730;11.566;2023-05-10T07:52:14;14.40;99.90
22145;DHT22;11238;48.730;11.566;2023-05-10T07:54:41;14.40;99.90
22145;DHT22;11238;48.730;11.566;2023-05-10T07:57:07;14.40;99.90
22145;DHT22;11238;48.730;11.566;2023-05-10T07:59:34;14.50;99.90
22145;DHT22;11238;48.730;11.566;2023-05-10T08:01:59;14.40;99.90
22145;DHT22;11238;48.730;11.566;2023-05-10T08:04:26;14.50;99.90
22145;DHT22;11238;48.730;11.566;2023-05-10T08:06:52;14.40;99.90
22145;DHT22;11238;48.730;11.566;2023-05-10T08:09:18;14.40;99.90
22145;DHT22;11238;48.730;11.566;2023-05-10T08:11:50;14.60;99.90
22145;DHT22;11238;48.730;11.566;2023-05-10T08:14:16;14.60;99.90
22145;DHT22;11238;48.730;11.566;2023-05-10T08:16:42;14.50;99.90
22145;DHT22;11238;48.730;11.566;2023-05-10T08:19:08;14.40;99.90
22145;DHT22;11238;48.730;11.566;2023-05-10T08:21:35;14.40;99.90
22145;DHT22;11238;48.730;11.566;2023-05-10T08:24:01;14.60;99.90
22145;DHT22;11238;48.730;11.566;2023-05-10T08:26:27;14.80;99.90
22145;DHT22;11238;48.730;11.566;2023-05-10T08:28:54;14.80;99.90
22145;DHT22;11238;48.730;11.566;2023-05-10T08:31:20;14.90;99.90
22145;DHT22;11238;48.730;11.566;2023-05-10T08:33:45;15.00;99.90
22145;DHT22;11238;48.730;11.566;2023-05-10T08:36:12;15.10;99.90
22145;DHT22;11238;48.730;11.566;2023-05-10T08:38:39;15.00;99.90
22145;DHT22;11238;48.730;11.566;2023-05-10T08:41:05;15.00;99.90
22145;DHT22;11238;48.730;11.566;2023-05-10T08:43:32;15.00;99.90
22145;DHT22;11238;48.730;11.566;2023-05-10T08:46:01;14.90;99.90
22145;DHT22;11238;48.730;11.566;2023-05-10T08:48:30;14.80;99.90
22145;DHT22;11238;48.730;11.566;2023-05-10T08:51:00;14.70;99.90
22145;DHT22;11238;48.730;11.566;2023-05-10T08:53:28;14.80;99.90
22145;DHT22;11238;48.730;11.566;2023-05-10T08:55:57;15.00;99.90
22145;DHT22;11238;48.730;11.566;2023-05-10T08:58:23;15.00;99.90
22145;DHT22;11238;48.730;11.566;2023-05-10T09:00:49;14.90;99.90
22145;DHT22;11238;48.730;11.566;2023-05-10T09:03:18;14.90;99.90
22145;DHT22;11238;48.730;11.566;2023-05-10T09:05:46;15.00;99.90
22145;DHT22;11238;48.730;11.566;2023-05-10T09:08:12;15.00;99.90
22145;DHT22;11238;48.730;11.566;2023-05-10T09:10:41;14.80;99.90
22145;DHT22;11238;48.730;11.566;2023-05-10T09:13:14;14.60;99.90
22145;DHT22;11238;48.730;11.566;2023-05-10T09:15:41;14.50;99.90
22145;DHT22;11238;48.730;11.566;2023-05-10T09:18:07;14.60;99.90
22145;DHT22;11238;48.730;11.566;2023-05-10T09:20:33;14.50;99.90
22145;DHT22;11238;48.730;11.566;2023-05-10T09:22:59;14.40;99.90
22145;DHT22;11238;48.730;11.566;2023-05-10T09:25:25;14.30;99.90
22145;DHT22;11238;48.730;11.566;2023-05-10T09:27:52;14.40;99.90
22145;DHT22;11238;48.730;11.566;2023-05-10T09:30:29;14.50;99.90
22145;DHT22;11238;48.730;11.566;2023-05-10T09:32:57;14.50;99.90
22145;DHT22;11238;48.730;11.566;2023-05-10T09:35:26;14.60;99.90
22145;DHT22;11238;48.730;11.566;2023-05-10T09:37:54;14.90;99.90
22145;DHT22;11238;48.730;11.566;2023-05-10T09:40:23;15.10;99.90
22145;DHT22;11238;48.730;11.566;2023-05-10T09:43:00;15.10;99.90
22145;DHT22;11238;48.730;11.566;2023-05-10T09:45:30;15.40;99.90
22145;DHT22;11238;48.730;11.566;2023-05-10T09:47:59;15.70;99.90
22145;DHT22;11238;48.730;11.566;2023-05-10T09:50:26;15.80;99.90
22145;DHT22;11238;48.730;11.566;2023-05-10T09:52:54;16.20;99.90
22145;DHT22;11238;48.730;11.566;2023-05-10T09:55:22;16.50;99.90
22145;DHT22;11238;48.730;11.566;2023-05-10T09:57:50;16.40;99.90
22145;DHT22;11238;48.730;11.566;2023-05-10T10:00:26;16.70;99.90
22145;DHT22;11238;48.730;11.566;2023-05-10T10:02:58;16.80;99.90
22145;DHT22;11238;48.730;11.566;2023-05-10T10:05:29;17.00;99.90
22145;DHT22;11238;48.730;11.566;2023-05-10T10:07:57;16.90;99.90
22145;DHT22;11238;48.730;11.566;2023-05-10T10:10:24;16.90;99.90
22145;DHT22;11238;48.730;11.566;2023-05-10T10:12:53;16.70;99.90
22145;DHT22;11238;48.730;11.566;2023-05-10T10:15:22;16.70;99.90
22145;DHT22;11238;48.730;11.566;2023-05-10T10:17:48;16.60;99.90
22145;DHT22;11238;48.730;11.566;2023-05-10T10:20:15;16.50;99.90
22145;DHT22;11238;48.730;11.566;2023-05-10T10:22:41;16.50;99.90
22145;DHT22;11238;48.730;11.566;2023-05-10T10:25:11;16.60;99.90
22145;DHT22;11238;48.730;11.566;2023-05-10T10:35:59;17.10;99.90
22145;DHT22;11238;48.730;11.566;2023-05-10T10:41:34;17.00;99.90
22145;DHT22;11238;48.730;11.566;2023-05-10T11:00:29;17.60;99.90
22145;DHT22;11238;48.730;11.566;2023-05-10T11:05:39;17.50;99.90
22145;DHT22;11238;48.730;11.566;2023-05-10T11:08:27;17.30;99.90
22145;DHT22;11238;48.730;11.566;2023-05-10T11:13:41;16.90;99.90
22145;DHT22;11238;48.730;11.566;2023-05-10T11:21:31;16.70;99.90
22145;DHT22;11238;48.730;11.566;2023-05-10T11:23:59;16.70;99.90
22145;DHT22;11238;48.730;11.566;2023-05-10T11:26:30;16.60;99.90
22145;DHT22;11238;48.730;11.566;2023-05-10T11:28:57;16.60;99.90
22145;DHT22;11238;48.730;11.566;2023-05-10T11:31:25;16.80;99.90
22145;DHT22;11238;48.730;11.566;2023-05-10T11:33:54;16.80;99.90
22145;DHT22;11238;48.730;11.566;2023-05-10T11:36:24;16.80;99.90
22145;DHT22;11238;48.730;11.566;2023-05-10T11:38:51;16.80;99.90
22145;DHT22;11238;48.730;11.566;2023-05-10T11:41:18;16.90;99.90
22145;DHT22;11238;48.730;11.566;2023-05-10T11:43:45;16.90;99.90
22145;DHT22;11238;48.730;11.566;2023-05-10T11:46:13;17.00;99.90
22145;DHT22;11238;48.730;11.566;2023-05-10T11:48:40;16.80;99.90
22145;DHT22;11238;48.730;11.566;2023-05-10T11:51:10;16.90;99.90
22145;DHT22;11238;48.730;11.566;2023-05-10T11:53:36;16.80;99.90
22145;DHT22;11238;48.730;11.566;2023-05-10T11:56:05;16.80;99.90
22145;DHT22;11238;48.730;11.566;2023-05-10T11:58:31;16.80;99.90
22145;DHT22;11238;48.730;11.566;2023-05-10T12:00:59;16.90;99.90
22145;DHT22;11238;48.730;11.566;2023-05-10T12:03:25;16.60;99.90
22145;DHT22;11238;48.730;11.566;2023-05-10T12:05:51;15.90;99.90
22145;DHT22;11238;48.730;11.566;2023-05-10T12:08:24;15.90;99.90
22145;DHT22;11238;48.730;11.566;2023-05-10T12:10:51;15.60;99.90
22145;DHT22;11238;48.730;11.566;2023-05-10T12:13:19;15.40;99.90
22145;DHT22;11238;48.730;11.566;2023-05-10T12:15:46;15.30;99.90
22145;DHT22;11238;48.730;11.566;2023-05-10T12:18:13;15.20;99.90
22145;DHT22;11238;48.730;11.566;2023-05-10T12:20:39;15.10;99.90
22145;DHT22;11238;48.730;11.566;2023-05-10T12:23:08;15.00;99.90
22145;DHT22;11238;48.730;11.566;2023-05-10T12:25:36;14.90;99.90
22145;DHT22;11238;48.730;11.566;2023-05-10T12:28:04;14.80;99.90
22145;DHT22;11238;48.730;11.566;2023-05-10T12:30:33;14.80;99.90
22145;DHT22;11238;48.730;11.566;2023-05-10T12:33:02;14.90;99.90
22145;DHT22;11238;48.730;11.566;2023-05-10T12:35:32;15.00;99.90
22145;DHT22;11238;48.730;11.566;2023-05-10T12:37:57;15.00;99.90
22145;DHT22;11238;48.730;11.566;2023-05-10T12:40:23;15.00;99.90
22145;DHT22;11238;48.730;11.566;2023-05-10T12:42:49;15.20;99.90
22145;DHT22;11238;48.730;11.566;2023-05-10T12:45:17;15.30;99.90
22145;DHT22;11238;48.730;11.566;2023-05-10T12:47:43;15.40;99.90
22145;DHT22;11238;48.730;11.566;2023-05-10T12:50:10;15.40;99.90
22145;DHT22;11238;48.730;11.566;2023-05-10T12:52:35;15.60;99.90
22145;DHT22;11238;48.730;11.566;2023-05-10T12:55:01;15.60;99.90
22145;DHT22;11238;48.730;11.566;2023-05-10T12:57:28;15.70;99.90
22145;DHT22;11238;48.730;11.566;2023-05-10T12:59:55;15.70;99.90
22145;DHT22;11238;48.730;11.566;2023-05-10T13:02:21;15.80;99.90
22145;DHT22;11238;48.730;11.566;2023-05-10T13:04:49;15.70;99.90
22145;DHT22;11238;48.730;11.566;2023-05-10T13:07:14;15.80;99.90
22145;DHT22;11238;48.730;11.566;2023-05-10T13:09:41;16.00;99.90
22145;DHT22;11238;48.730;11.566;2023-05-10T13:12:07;16.00;99.90
22145;DHT22;11238;48.730;11.566;2023-05-10T13:14:32;16.10;99.90
22145;DHT22;11238;48.730;11.566;2023-05-10T13:16:58;16.30;99.90
22145;DHT22;11238;48.730;11.566;2023-05-10T13:19:26;16.40;99.90
22145;DHT22;11238;48.730;11.566;2023-05-10T13:21:52;16.40;99.90
22145;DHT22;11238;48.730;11.566;2023-05-10T13:24:18;16.50;99.90
22145;DHT22;11238;48.730;11.566;2023-05-10T13:26:45;16.70;99.90
22145;DHT22;11238;48.730;11.566;2023-05-10T13:29:11;16.80;99.90
22145;DHT22;11238;48.730;11.566;2023-05-10T13:31:36;16.80;99.90
22145;DHT22;11238;48.730;11.566;2023-05-10T13:34:03;16.90;99.90
22145;DHT22;11238;48.730;11.566;2023-05-10T13:36:29;17.00;99.90
22145;DHT22;11238;48.730;11.566;2023-05-10T13:38:54;16.60;99.90
22145;DHT22;11238;48.730;11.566;2023-05-10T13:41:20;16.40;99.90
22145;DHT22;11238;48.730;11.566;2023-05-10T13:43:46;16.30;99.90
22145;DHT22;11238;48.730;11.566;2023-05-10T13:46:14;16.20;99.90
22145;DHT22;11238;48.730;11.566;2023-05-10T13:48:40;16.00;99.90
22145;DHT22;11238;48.730;11.566;2023-05-10T13:51:05;15.80;99.90
22145;DHT22;11238;48.730;11.566;2023-05-10T13:53:31;15.70;99.90
22145;DHT22;11238;48.730;11.566;2023-05-10T13:55:57;15.50;99.90
22145;DHT22;11238;48.730;11.566;2023-05-10T13:58:23;15.30;99.90
22145;DHT22;11238;48.730;11.566;2023-05-10T14:00:49;15.30;99.90
22145;DHT22;11238;48.730;11.566;2023-05-10T14:03:15;15.30;99.90
22145;DHT22;11238;48.730;11.566;2023-05-10T14:05:41;15.20;99.90
22145;DHT22;11238;48.730;11.566;2023-05-10T14:08:06;15.10;99.90
22145;DHT22;11238;48.730;11.566;2023-05-10T14:10:32;15.10;99.90
22145;DHT22;11238;48.730;11.566;2023-05-10T14:12:58;15.10;99.90
22145;DHT22;11238;48.730;11.566;2023-05-10T14:15:24;15.10;99.90
22145;DHT22;11238;48.730;11.566;2023-05-10T14:17:50;15.00;99.90
22145;DHT22;11238;48.730;11.566;2023-05-10T14:20:15;15.00;99.90
22145;DHT22;11238;48.730;11.566;2023-05-10T14:22:42;15.00;99.90
22145;DHT22;11238;48.730;11.566;2023-05-10T14:25:08;15.10;99.90
22145;DHT22;11238;48.730;11.566;2023-05-10T14:27:33;14.90;99.90
22145;DHT22;11238;48.730;11.566;2023-05-10T14:29:59;14.50;99.90
22145;DHT22;11238;48.730;11.566;2023-05-10T14:32:25;14.30;99.90
22145;DHT22;11238;48.730;11.566;2023-05-10T14:34:52;14.40;99.90
22145;DHT22;11238;48.730;11.566;2023-05-10T14:37:17;14.50;99.90
22145;DHT22;11238;48.730;11.566;2023-05-10T14:39:43;14.70;99.90
22145;DHT22;11238;48.730;11.566;2023-05-10T14:42:09;14.60;99.90
22145;DHT22;11238;48.730;11.566;2023-05-10T14:44:35;14.60;99.90
22145;DHT22;11238;48.730;11.566;2023-05-10T14:47:00;14.50;99.90
22145;DHT22;11238;48.730;11.566;2023-05-10T14:49:26;14.30;99.90
22145;DHT22;11238;48.730;11.566;2023-05-10T14:51:52;14.00;99.90
22145;DHT22;11238;48.730;11.566;2023-05-10T14:54:18;13.90;99.90
22145;DHT22;11238;48.730;11.566;2023-05-10T14:56:44;13.90;99.90
22145;DHT22;11238;48.730;11.566;2023-05-10T14:59:10;13.70;99.90
22145;DHT22;11238;48.730;11.566;2023-05-10T15:01:35;13.50;99.90
22145;DHT22;11238;48.730;11.566;2023-05-10T15:04:04;13.70;99.90
22145;DHT22;11238;48.730;11.566;2023-05-10T15:06:34;13.60;99.90
22145;DHT22;11238;48.730;11.566;2023-05-10T15:09:01;13.40;99.90
22145;DHT22;11238;48.730;11.566;2023-05-10T15:11:28;13.30;99.90
22145;DHT22;11238;48.730;11.566;2023-05-10T15:13:55;13.10;99.90
22145;DHT22;11238;48.730;11.566;2023-05-10T15:16:20;13.30;99.90
22145;DHT22;11238;48.730;11.566;2023-05-10T15:18:47;13.40;99.90
22145;DHT22;11238;48.730;11.566;2023-05-10T15:21:14;13.30;99.90
22145;DHT22;11238;48.730;11.566;2023-05-10T15:23:40;13.40;99.90
22145;DHT22;11238;48.730;11.566;2023-05-10T15:26:06;13.40;99.90
22145;DHT22;11238;48.730;11.566;2023-05-10T15:28:32;13.60;99.90
22145;DHT22;11238;48.730;11.566;2023-05-10T15:30:58;13.70;99.90
22145;DHT22;11238;48.730;11.566;2023-05-10T15:33:24;13.70;99.90
22145;DHT22;11238;48.730;11.566;2023-05-10T15:35:50;13.80;99.90
22145;DHT22;11238;48.730;11.566;2023-05-10T15:38:16;13.90;99.90
22145;DHT22;11238;48.730;11.566;2023-05-10T15:40:42;13.90;99.90
22145;DHT22;11238;48.730;11.566;2023-05-10T15:43:08;14.00;99.90
22145;DHT22;11238;48.730;11.566;2023-05-10T15:45:33;14.00;99.90
22145;DHT22;11238;48.730;11.566;2023-05-10T15:47:59;13.90;99.90
22145;DHT22;11238;48.730;11.566;2023-05-10T15:50:25;14.00;99.90
22145;DHT22;11238;48.730;11.566;2023-05-10T15:52:52;14.10;99.90
22145;DHT22;11238;48.730;11.566;2023-05-10T15:55:19;14.10;99.90
22145;DHT22;11238;48.730;11.566;2023-05-10T15:57:45;14.10;99.90
22145;DHT22;11238;48.730;11.566;2023-05-10T16:00:12;14.00;99.90
22145;DHT22;11238;48.730;11.566;2023-05-10T16:02:41;14.00;99.90
22145;DHT22;11238;48.730;11.566;2023-05-10T16:05:07;14.00;99.90